sensor_id;sensor_type;location;lat;lon;timestamp;P1;durP1;ratioP1;P2;durP2;ratioP2
3185;SDS011;1604;53.700;10.252;2023-10-19T00:02:29;15.20;;;11.90;;
3185;SDS011;1604;53.700;10.252;2023-10-19T00:05:31;17.33;;;11.20;;
3185;SDS011;1604;53.700;10.252;2023-10-19T00:08:33;17.27;;;11.60;;
3185;SDS011;1604;53.700;10.252;2023-10-19T00:11:41;17.43;;;10.80;;
3185;SDS011;1604;53.700;10.252;2023-10-19T00:14:58;14.70;;;9.67;;
3185;SDS011;1604;53.700;10.252;2023-10-19T00:18:20;14.40;;;12.90;;
3185;SDS011;1604;53.700;10.252;2023-10-19T00:21:25;16.83;;;10.77;;
3185;SDS011;1604;53.700;10.252;2023-10-19T00:24:27;16.20;;;11.43;;
3185;SDS011;1604;53.700;10.252;2023-10-19T00:27:31;13.93;;;10.33;;
3185;SDS011;1604;53.700;10.252;2023-10-19T00:30:35;17.70;;;12.93;;
3185;SDS011;1604;53.700;10.252;2023-10-19T00:33:37;15.50;;;11.77;;
3185;SDS011;1604;53.700;10.252;2023-10-19T00:36:39;17.83;;;10.80;;
3185;SDS011;1604;53.700;10.252;2023-10-19T00:39:41;15.70;;;11.87;;
3185;SDS011;1604;53.700;10.252;2023-10-19T00:42:48;14.60;;;10.30;;
3185;SDS011;1604;53.700;10.252;2023-10-19T00:46:02;14.77;;;12.27;;
3185;SDS011;1604;53.700;10.252;2023-10-19T00:49:10;18.70;;;13.67;;
3185;SDS011;1604;53.700;10.252;2023-10-19T00:52:17;17.07;;;11.00;;
3185;SDS011;1604;53.700;10.252;2023-10-19T00:55:23;15.50;;;12.60;;
3185;SDS011;1604;53.700;10.252;2023-10-19T00:58:28;17.10;;;12.17;;
3185;SDS011;1604;53.700;10.252;2023-10-19T01:01:37;16.33;;;12.70;;
3185;SDS011;1604;53.700;10.252;2023-10-19T01:04:45;19.00;;;12.23;;
3185;SDS011;1604;53.700;10.252;2023-10-19T01:08:02;17.47;;;10.77;;
3185;SDS011;1604;53.700;10.252;2023-10-19T01:11:19;18.43;;;12.60;;
3185;SDS011;1604;53.700;10.252;2023-10-19T01:14:28;15.10;;;12.97;;
3185;SDS011;1604;53.700;10.252;2023-10-19T01:17:34;21.23;;;12.30;;
3185;SDS011;1604;53.700;10.252;2023-10-19T01:20:50;14.20;;;9.83;;
3185;SDS011;1604;53.700;10.252;2023-10-19T01:23:54;16.90;;;12.40;;
3185;SDS011;1604;53.700;10.252;2023-10-19T01:26:56;19.53;;;13.40;;
3185;SDS011;1604;53.700;10.252;2023-10-19T01:30:00;15.20;;;11.90;;
3185;SDS011;1604;53.700;10.252;2023-10-19T01:33:04;20.70;;;12.07;;
3185;SDS011;1604;53.700;10.252;2023-10-19T01:36:28;16.20;;;14.43;;
3185;SDS011;1604;53.700;10.252;2023-10-19T01:39:35;19.93;;;12.47;;
3185;SDS011;1604;53.700;10.252;2023-10-19T01:42:39;16.27;;;12.27;;
3185;SDS011;1604;53.700;10.252;2023-10-19T01:45:40;17.97;;;11.10;;
3185;SDS011;1604;53.700;10.252;2023-10-19T01:48:42;18.80;;;13.57;;
3185;SDS011;1604;53.700;10.252;2023-10-19T01:51:44;18.23;;;13.67;;
3185;SDS011;1604;53.700;10.252;2023-10-19T01:54:49;19.50;;;12.37;;
3185;SDS011;1604;53.700;10.252;2023-10-19T01:58:10;16.30;;;12.90;;
3185;SDS011;1604;53.700;10.252;2023-10-19T02:01:15;15.23;;;11.70;;
3185;SDS011;1604;53.700;10.252;2023-10-19T02:04:28;17.93;;;14.50;;
3185;SDS011;1604;53.700;10.252;2023-10-19T02:07:43;16.57;;;14.17;;
3185;SDS011;1604;53.700;10.252;2023-10-19T02:10:48;23.37;;;11.87;;
3185;SDS011;1604;53.700;10.252;2023-10-19T02:13:51;17.43;;;12.97;;
3185;SDS011;1604;53.700;10.252;2023-10-19T02:17:08;18.40;;;14.00;;
3185;SDS011;1604;53.700;10.252;2023-10-19T02:20:10;22.70;;;14.77;;
3185;SDS011;1604;53.700;10.252;2023-10-19T02:23:24;23.10;;;15.13;;
3185;SDS011;1604;53.700;10.252;2023-10-19T02:26:27;17.33;;;13.70;;
3185;SDS011;1604;53.700;10.252;2023-10-19T02:29:30;19.57;;;12.83;;
3185;SDS011;1604;53.700;10.252;2023-10-19T02:32:36;16.17;;;12.10;;
3185;SDS011;1604;53.700;10.252;2023-10-19T02:35:38;19.97;;;13.37;;
3185;SDS011;1604;53.700;10.252;2023-10-19T02:38:41;19.43;;;13.60;;
3185;SDS011;1604;53.700;10.252;2023-10-19T02:41:49;19.60;;;12.90;;
3185;SDS011;1604;53.700;10.252;2023-10-19T02:44:53;19.97;;;15.07;;
3185;SDS011;1604;53.700;10.252;2023-10-19T02:47:54;20.40;;;14.07;;
3185;SDS011;1604;53.700;10.252;2023-10-19T02:50:56;18.13;;;11.83;;
3185;SDS011;1604;53.700;10.252;2023-10-19T02:54:09;19.53;;;13.87;;
3185;SDS011;1604;53.700;10.252;2023-10-19T02:57:19;16.33;;;13.57;;
3185;SDS011;1604;53.700;10.252;2023-10-19T03:00:23;19.87;;;14.40;;
3185;SDS011;1604;53.700;10.252;2023-10-19T03:03:32;21.47;;;13.67;;
3185;SDS011;1604;53.700;10.252;2023-10-19T03:06:34;20.27;;;12.73;;
3185;SDS011;1604;53.700;10.252;2023-10-19T03:09:37;19.77;;;15.07;;
3185;SDS011;1604;53.700;10.252;2023-10-19T03:12:41;19.27;;;13.53;;
3185;SDS011;1604;53.700;10.252;2023-10-19T03:15:43;19.30;;;12.17;;
3185;SDS011;1604;53.700;10.252;2023-10-19T03:18:45;19.23;;;12.87;;
3185;SDS011;1604;53.700;10.252;2023-10-19T03:21:47;19.80;;;13.40;;
3185;SDS011;1604;53.700;10.252;2023-10-19T03:24:49;17.93;;;12.77;;
3185;SDS011;1604;53.700;10.252;2023-10-19T03:28:01;23.30;;;13.20;;
3185;SDS011;1604;53.700;10.252;2023-10-19T03:31:08;23.40;;;14.50;;
3185;SDS011;1604;53.700;10.252;2023-10-19T03:34:17;19.93;;;13.77;;
3185;SDS011;1604;53.700;10.252;2023-10-19T03:37:21;22.13;;;13.40;;
3185;SDS011;1604;53.700;10.252;2023-10-19T03:40:25;22.10;;;13.50;;
3185;SDS011;1604;53.700;10.252;2023-10-19T03:43:32;22.20;;;11.43;;
3185;SDS011;1604;53.700;10.252;2023-10-19T03:46:35;16.50;;;12.00;;
3185;SDS011;1604;53.700;10.252;2023-10-19T03:49:37;18.03;;;13.40;;
3185;SDS011;1604;53.700;10.252;2023-10-19T03:52:40;22.37;;;13.83;;
3185;SDS011;1604;53.700;10.252;2023-10-19T03:55:42;19.50;;;13.33;;
3185;SDS011;1604;53.700;10.252;2023-10-19T03:58:46;21.17;;;14.43;;
3185;SDS011;1604;53.700;10.252;2023-10-19T04:02:02;22.27;;;14.80;;
3185;SDS011;1604;53.700;10.252;2023-10-19T04:05:10;19.97;;;15.27;;
3185;SDS011;1604;53.700;10.252;2023-10-19T04:08:15;21.20;;;13.83;;
3185;SDS011;1604;53.700;10.252;2023-10-19T04:11:20;21.80;;;12.10;;
3185;SDS011;1604;53.700;10.252;2023-10-19T04:14:24;17.40;;;11.97;;
3185;SDS011;1604;53.700;10.252;2023-10-19T04:17:26;19.27;;;14.03;;
3185;SDS011;1604;53.700;10.252;2023-10-19T04:20:28;22.20;;;13.57;;
3185;SDS011;1604;53.700;10.252;2023-10-19T04:23:36;19.17;;;13.50;;
3185;SDS011;1604;53.700;10.252;2023-10-19T04:26:38;21.33;;;14.63;;
3185;SDS011;1604;53.700;10.252;2023-10-19T04:29:42;22.87;;;13.60;;
3185;SDS011;1604;53.700;10.252;2023-10-19T04:32:57;19.47;;;13.33;;
3185;SDS011;1604;53.700;10.252;2023-10-19T04:36:01;29.90;;;15.80;;
3185;SDS011;1604;53.700;10.252;2023-10-19T04:39:03;19.70;;;13.77;;
3185;SDS011;1604;53.700;10.252;2023-10-19T04:42:11;25.30;;;15.87;;
3185;SDS011;1604;53.700;10.252;2023-10-19T04:45:16;25.43;;;15.57;;
3185;SDS011;1604;53.700;10.252;2023-10-19T04:48:18;22.20;;;15.33;;
3185;SDS011;1604;53.700;10.252;2023-10-19T04:51:20;32.03;;;14.93;;
3185;SDS011;1604;53.700;10.252;2023-10-19T04:54:22;24.03;;;15.63;;
3185;SDS011;1604;53.700;10.252;2023-10-19T04:57:24;22.20;;;16.10;;
3185;SDS011;1604;53.700;10.252;2023-10-19T05:00:27;27.70;;;16.63;;
3185;SDS011;1604;53.700;10.252;2023-10-19T05:03:29;29.13;;;18.40;;
3185;SDS011;1604;53.700;10.252;2023-10-19T05:06:32;22.50;;;15.83;;
3185;SDS011;1604;53.700;10.252;2023-10-19T05:09:34;23.40;;;16.53;;
3185;SDS011;1604;53.700;10.252;2023-10-19T05:12:38;23.30;;;16.80;;
3185;SDS011;1604;53.700;10.252;2023-10-19T05:15:42;32.30;;;15.20;;
3185;SDS011;1604;53.700;10.252;2023-10-19T05:18:44;21.70;;;14.67;;
3185;SDS011;1604;53.700;10.252;2023-10-19T05:22:06;33.60;;;18.07;;
3185;SDS011;1604;53.700;10.252;2023-10-19T05:25:12;24.73;;;17.07;;
3185;SDS011;1604;53.700;10.252;2023-10-19T05:28:14;25.60;;;16.90;;
3185;SDS011;1604;53.700;10.252;2023-10-19T05:31:17;32.07;;;17.37;;
3185;SDS011;1604;53.700;10.252;2023-10-19T05:34:19;27.40;;;16.33;;
3185;SDS011;1604;53.700;10.252;2023-10-19T05:37:21;26.60;;;16.70;;
3185;SDS011;1604;53.700;10.252;2023-10-19T05:40:23;20.70;;;14.80;;
3185;SDS011;1604;53.700;10.252;2023-10-19T05:43:29;26.93;;;18.00;;
3185;SDS011;1604;53.700;10.252;2023-10-19T05:46:32;30.33;;;18.80;;
3185;SDS011;1604;53.700;10.252;2023-10-19T05:49:36;28.77;;;18.67;;
3185;SDS011;1604;53.700;10.252;2023-10-19T05:52:38;27.73;;;19.40;;
3185;SDS011;1604;53.700;10.252;2023-10-19T05:55:41;28.17;;;17.10;;
3185;SDS011;1604;53.700;10.252;2023-10-19T05:58:43;26.47;;;18.20;;
3185;SDS011;1604;53.700;10.252;2023-10-19T06:01:50;29.53;;;17.83;;
3185;SDS011;1604;53.700;10.252;2023-10-19T06:04:53;31.30;;;17.33;;
3185;SDS011;1604;53.700;10.252;2023-10-19T06:07:57;30.90;;;17.20;;
3185;SDS011;1604;53.700;10.252;2023-10-19T06:11:00;29.33;;;18.10;;
3185;SDS011;1604;53.700;10.252;2023-10-19T06:14:03;27.50;;;19.00;;
3185;SDS011;1604;53.700;10.252;2023-10-19T06:17:11;27.60;;;18.80;;
3185;SDS011;1604;53.700;10.252;2023-10-19T06:20:19;28.80;;;18.23;;
3185;SDS011;1604;53.700;10.252;2023-10-19T06:23:23;27.03;;;17.43;;
3185;SDS011;1604;53.700;10.252;2023-10-19T06:26:25;30.43;;;19.57;;
3185;SDS011;1604;53.700;10.252;2023-10-19T06:29:27;32.00;;;21.57;;
3185;SDS011;1604;53.700;10.252;2023-10-19T06:32:31;26.33;;;18.33;;
3185;SDS011;1604;53.700;10.252;2023-10-19T06:35:33;27.40;;;17.17;;
3185;SDS011;1604;53.700;10.252;2023-10-19T06:38:37;27.90;;;18.50;;
3185;SDS011;1604;53.700;10.252;2023-10-19T06:41:47;33.23;;;18.93;;
3185;SDS011;1604;53.700;10.252;2023-10-19T06:44:49;29.60;;;17.23;;
3185;SDS011;1604;53.700;10.252;2023-10-19T06:47:55;30.70;;;22.27;;
3185;SDS011;1604;53.700;10.252;2023-10-19T06:51:11;28.27;;;21.00;;
3185;SDS011;1604;53.700;10.252;2023-10-19T06:54:13;34.97;;;20.47;;
3185;SDS011;1604;53.700;10.252;2023-10-19T06:57:15;32.87;;;22.80;;
3185;SDS011;1604;53.700;10.252;2023-10-19T07:00:18;29.53;;;21.53;;
3185;SDS011;1604;53.700;10.252;2023-10-19T07:03:36;34.73;;;21.10;;
3185;SDS011;1604;53.700;10.252;2023-10-19T07:06:39;28.83;;;21.67;;
3185;SDS011;1604;53.700;10.252;2023-10-19T07:09:41;31.90;;;19.43;;
3185;SDS011;1604;53.700;10.252;2023-10-19T07:12:43;28.00;;;19.03;;
3185;SDS011;1604;53.700;10.252;2023-10-19T07:16:00;29.83;;;16.30;;
3185;SDS011;1604;53.700;10.252;2023-10-19T07:19:18;27.80;;;18.63;;
3185;SDS011;1604;53.700;10.252;2023-10-19T07:22:50;29.90;;;20.17;;
3185;SDS011;1604;53.700;10.252;2023-10-19T07:25:52;28.47;;;17.90;;
3185;SDS011;1604;53.700;10.252;2023-10-19T07:29:15;33.43;;;19.67;;
3185;SDS011;1604;53.700;10.252;2023-10-19T07:32:19;25.67;;;18.43;;
3185;SDS011;1604;53.700;10.252;2023-10-19T07:35:23;31.80;;;20.07;;
3185;SDS011;1604;53.700;10.252;2023-10-19T07:38:44;27.83;;;21.97;;
3185;SDS011;1604;53.700;10.252;2023-10-19T07:41:47;27.77;;;18.40;;
3185;SDS011;1604;53.700;10.252;2023-10-19T07:44:49;28.00;;;22.73;;
3185;SDS011;1604;53.700;10.252;2023-10-19T07:47:51;34.43;;;19.70;;
3185;SDS011;1604;53.700;10.252;2023-10-19T07:50:55;33.33;;;20.50;;
3185;SDS011;1604;53.700;10.252;2023-10-19T07:53:58;31.40;;;21.37;;
3185;SDS011;1604;53.700;10.252;2023-10-19T07:57:00;35.47;;;20.13;;
3185;SDS011;1604;53.700;10.252;2023-10-19T08:00:07;35.80;;;21.13;;
3185;SDS011;1604;53.700;10.252;2023-10-19T08:03:10;39.30;;;20.03;;
3185;SDS011;1604;53.700;10.252;2023-10-19T08:06:27;35.33;;;25.53;;
3185;SDS011;1604;53.700;10.252;2023-10-19T08:09:51;33.10;;;20.70;;
3185;SDS011;1604;53.700;10.252;2023-10-19T08:12:54;34.17;;;20.67;;
3185;SDS011;1604;53.700;10.252;2023-10-19T08:15:56;40.03;;;21.00;;
3185;SDS011;1604;53.700;10.252;2023-10-19T08:18:58;28.70;;;19.10;;
3185;SDS011;1604;53.700;10.252;2023-10-19T08:22:02;38.33;;;20.83;;
3185;SDS011;1604;53.700;10.252;2023-10-19T08:25:17;34.90;;;21.63;;
3185;SDS011;1604;53.700;10.252;2023-10-19T08:28:33;36.10;;;23.37;;
3185;SDS011;1604;53.700;10.252;2023-10-19T08:31:36;32.63;;;22.53;;
3185;SDS011;1604;53.700;10.252;2023-10-19T08:34:40;32.67;;;21.77;;
3185;SDS011;1604;53.700;10.252;2023-10-19T08:37:43;35.60;;;21.73;;
3185;SDS011;1604;53.700;10.252;2023-10-19T08:40:50;36.00;;;22.23;;
3185;SDS011;1604;53.700;10.252;2023-10-19T08:43:52;32.53;;;21.30;;
3185;SDS011;1604;53.700;10.252;2023-10-19T08:46:56;32.80;;;22.67;;
3185;SDS011;1604;53.700;10.252;2023-10-19T08:50:02;36.97;;;23.87;;
3185;SDS011;1604;53.700;10.252;2023-10-19T08:53:08;34.23;;;24.90;;
3185;SDS011;1604;53.700;10.252;2023-10-19T08:56:46;38.03;;;25.10;;
3185;SDS011;1604;53.700;10.252;2023-10-19T08:59:48;34.07;;;22.23;;
3185;SDS011;1604;53.700;10.252;2023-10-19T09:03:04;39.67;;;22.20;;
3185;SDS011;1604;53.700;10.252;2023-10-19T09:06:11;40.27;;;21.80;;
3185;SDS011;1604;53.700;10.252;2023-10-19T09:09:57;41.43;;;23.73;;
3185;SDS011;1604;53.700;10.252;2023-10-19T09:13:12;34.23;;;21.93;;
3185;SDS011;1604;53.700;10.252;2023-10-19T09:16:18;32.07;;;23.43;;
3185;SDS011;1604;53.700;10.252;2023-10-19T09:19:38;33.63;;;24.30;;
3185;SDS011;1604;53.700;10.252;2023-10-19T09:22:55;45.27;;;22.37;;
3185;SDS011;1604;53.700;10.252;2023-10-19T09:26:00;43.20;;;22.67;;
3185;SDS011;1604;53.700;10.252;2023-10-19T09:29:42;38.70;;;24.43;;
3185;SDS011;1604;53.700;10.252;2023-10-19T09:32:58;35.87;;;22.60;;
3185;SDS011;1604;53.700;10.252;2023-10-19T09:36:01;66.70;;;38.20;;
3185;SDS011;1604;53.700;10.252;2023-10-19T09:39:18;41.57;;;25.60;;
3185;SDS011;1604;53.700;10.252;2023-10-19T09:42:36;34.40;;;21.40;;
3185;SDS011;1604;53.700;10.252;2023-10-19T09:45:52;39.83;;;22.77;;
3185;SDS011;1604;53.700;10.252;2023-10-19T09:49:02;35.43;;;24.87;;
3185;SDS011;1604;53.700;10.252;2023-10-19T09:52:04;39.47;;;22.50;;
3185;SDS011;1604;53.700;10.252;2023-10-19T09:55:06;32.30;;;23.60;;
3185;SDS011;1604;53.700;10.252;2023-10-19T09:58:29;33.40;;;24.93;;
3185;SDS011;1604;53.700;10.252;2023-10-19T10:02:10;38.60;;;25.90;;
3185;SDS011;1604;53.700;10.252;2023-10-19T10:05:45;40.07;;;26.67;;
3185;SDS011;1604;53.700;10.252;2023-10-19T10:08:48;34.60;;;22.47;;
3185;SDS011;1604;53.700;10.252;2023-10-19T10:11:51;35.53;;;21.50;;
3185;SDS011;1604;53.700;10.252;2023-10-19T10:15:21;34.57;;;21.43;;
3185;SDS011;1604;53.700;10.252;2023-10-19T10:18:40;33.80;;;23.07;;
3185;SDS011;1604;53.700;10.252;2023-10-19T10:21:58;34.93;;;23.40;;
3185;SDS011;1604;53.700;10.252;2023-10-19T10:25:25;35.43;;;23.47;;
3185;SDS011;1604;53.700;10.252;2023-10-19T10:28:31;32.37;;;23.60;;
3185;SDS011;1604;53.700;10.252;2023-10-19T10:31:35;39.57;;;23.10;;
3185;SDS011;1604;53.700;10.252;2023-10-19T10:34:47;45.50;;;22.47;;
3185;SDS011;1604;53.700;10.252;2023-10-19T10:37:53;30.90;;;22.40;;
3185;SDS011;1604;53.700;10.252;2023-10-19T10:41:19;38.70;;;20.57;;
3185;SDS011;1604;53.700;10.252;2023-10-19T10:44:34;32.73;;;21.87;;
3185;SDS011;1604;53.700;10.252;2023-10-19T10:47:52;33.73;;;21.90;;
3185;SDS011;1604;53.700;10.252;2023-10-19T10:50:57;32.53;;;22.57;;
3185;SDS011;1604;53.700;10.252;2023-10-19T10:53:59;30.57;;;19.70;;
3185;SDS011;1604;53.700;10.252;2023-10-19T10:57:01;30.00;;;21.00;;
3185;SDS011;1604;53.700;10.252;2023-10-19T11:00:04;38.80;;;20.43;;
3185;SDS011;1604;53.700;10.252;2023-10-19T11:03:09;29.67;;;20.17;;
3185;SDS011;1604;53.700;10.252;2023-10-19T11:06:11;33.30;;;22.00;;
3185;SDS011;1604;53.700;10.252;2023-10-19T11:09:13;26.03;;;19.40;;
3185;SDS011;1604;53.700;10.252;2023-10-19T11:12:18;29.47;;;20.17;;
3185;SDS011;1604;53.700;10.252;2023-10-19T11:15:21;32.30;;;19.30;;
3185;SDS011;1604;53.700;10.252;2023-10-19T11:18:31;32.60;;;16.17;;
3185;SDS011;1604;53.700;10.252;2023-10-19T11:21:35;35.33;;;19.97;;
3185;SDS011;1604;53.700;10.252;2023-10-19T11:24:37;27.70;;;19.10;;
3185;SDS011;1604;53.700;10.252;2023-10-19T11:27:41;30.20;;;17.63;;
3185;SDS011;1604;53.700;10.252;2023-10-19T11:30:43;30.37;;;21.53;;
3185;SDS011;1604;53.700;10.252;2023-10-19T11:33:50;37.17;;;23.20;;
3185;SDS011;1604;53.700;10.252;2023-10-19T12:23:22;38.30;;;24.10;;
3185;SDS011;1604;53.700;10.252;2023-10-19T12:26:25;36.47;;;23.33;;
3185;SDS011;1604;53.700;10.252;2023-10-19T12:29:27;48.57;;;25.87;;
3185;SDS011;1604;53.700;10.252;2023-10-19T12:32:29;44.33;;;28.53;;
3185;SDS011;1604;53.700;10.252;2023-10-19T12:35:32;43.33;;;23.17;;
3185;SDS011;1604;53.700;10.252;2023-10-19T12:38:44;35.13;;;22.83;;
3185;SDS011;1604;53.700;10.252;2023-10-19T12:41:47;48.47;;;29.43;;
3185;SDS011;1604;53.700;10.252;2023-10-19T12:44:50;41.23;;;27.93;;
3185;SDS011;1604;53.700;10.252;2023-10-19T12:47:52;37.57;;;22.90;;
3185;SDS011;1604;53.700;10.252;2023-10-19T12:50:56;38.47;;;26.07;;
3185;SDS011;1604;53.700;10.252;2023-10-19T12:53:57;38.00;;;25.10;;
3185;SDS011;1604;53.700;10.252;2023-10-19T12:57:03;41.00;;;24.23;;
3185;SDS011;1604;53.700;10.252;2023-10-19T13:00:07;36.03;;;21.73;;
3185;SDS011;1604;53.700;10.252;2023-10-19T13:03:44;39.10;;;21.40;;
3185;SDS011;1604;53.700;10.252;2023-10-19T13:06:46;30.23;;;25.07;;
3185;SDS011;1604;53.700;10.252;2023-10-19T13:09:49;25.70;;;16.90;;
3185;SDS011;1604;53.700;10.252;2023-10-19T13:12:50;37.30;;;22.60;;
3185;SDS011;1604;53.700;10.252;2023-10-19T13:15:54;35.27;;;23.97;;
3185;SDS011;1604;53.700;10.252;2023-10-19T13:18:57;39.90;;;19.00;;
3185;SDS011;1604;53.700;10.252;2023-10-19T13:21:59;34.37;;;24.33;;
3185;SDS011;1604;53.700;10.252;2023-10-19T13:25:05;36.77;;;22.03;;
3185;SDS011;1604;53.700;10.252;2023-10-19T13:28:09;40.60;;;20.70;;
3185;SDS011;1604;53.700;10.252;2023-10-19T13:31:13;33.47;;;23.93;;
3185;SDS011;1604;53.700;10.252;2023-10-19T13:34:16;30.47;;;20.90;;
3185;SDS011;1604;53.700;10.252;2023-10-19T13:37:18;28.87;;;20.50;;
3185;SDS011;1604;53.700;10.252;2023-10-19T13:40:20;29.67;;;22.60;;
3185;SDS011;1604;53.700;10.252;2023-10-19T13:43:23;30.53;;;21.83;;
3185;SDS011;1604;53.700;10.252;2023-10-19T13:46:25;39.67;;;21.43;;
3185;SDS011;1604;53.700;10.252;2023-10-19T13:49:29;28.43;;;17.17;;
3185;SDS011;1604;53.700;10.252;2023-10-19T13:52:30;35.43;;;23.50;;
3185;SDS011;1604;53.700;10.252;2023-10-19T13:55:34;32.23;;;20.53;;
3185;SDS011;1604;53.700;10.252;2023-10-19T13:58:37;31.40;;;20.70;;
3185;SDS011;1604;53.700;10.252;2023-10-19T14:01:39;38.53;;;20.90;;
3185;SDS011;1604;53.700;10.252;2023-10-19T14:04:42;39.37;;;19.10;;
3185;SDS011;1604;53.700;10.252;2023-10-19T14:07:46;30.20;;;22.10;;
3185;SDS011;1604;53.700;10.252;2023-10-19T14:10:48;32.70;;;19.47;;
3185;SDS011;1604;53.700;10.252;2023-10-19T14:13:50;30.47;;;18.07;;
3185;SDS011;1604;53.700;10.252;2023-10-19T14:16:52;28.93;;;18.53;;
3185;SDS011;1604;53.700;10.252;2023-10-19T14:19:56;35.20;;;21.20;;
3185;SDS011;1604;53.700;10.252;2023-10-19T14:22:58;29.97;;;20.70;;
3185;SDS011;1604;53.700;10.252;2023-10-19T14:26:00;30.17;;;20.33;;
3185;SDS011;1604;53.700;10.252;2023-10-19T14:29:03;35.23;;;22.67;;
3185;SDS011;1604;53.700;10.252;2023-10-19T14:32:05;34.40;;;22.60;;
3185;SDS011;1604;53.700;10.252;2023-10-19T14:35:08;29.13;;;19.97;;
3185;SDS011;1604;53.700;10.252;2023-10-19T14:38:12;32.50;;;21.30;;
3185;SDS011;1604;53.700;10.252;2023-10-19T14:41:15;34.17;;;20.30;;
3185;SDS011;1604;53.700;10.252;2023-10-19T14:44:17;33.43;;;20.90;;
3185;SDS011;1604;53.700;10.252;2023-10-19T14:47:18;39.60;;;23.40;;
3185;SDS011;1604;53.700;10.252;2023-10-19T14:50:22;31.40;;;21.40;;
3185;SDS011;1604;53.700;10.252;2023-10-19T14:53:24;35.63;;;21.03;;
3185;SDS011;1604;53.700;10.252;2023-10-19T14:56:26;34.03;;;22.67;;
3185;SDS011;1604;53.700;10.252;2023-10-19T14:59:28;39.03;;;26.47;;
3185;SDS011;1604;53.700;10.252;2023-10-19T15:02:33;34.73;;;20.13;;
3185;SDS011;1604;53.700;10.252;2023-10-19T15:05:37;33.87;;;20.77;;
3185;SDS011;1604;53.700;10.252;2023-10-19T15:08:41;36.63;;;22.53;;
3185;SDS011;1604;53.700;10.252;2023-10-19T15:11:43;45.57;;;25.47;;
3185;SDS011;1604;53.700;10.252;2023-10-19T15:14:45;34.50;;;25.00;;
3185;SDS011;1604;53.700;10.252;2023-10-19T15:17:47;38.43;;;23.43;;
3185;SDS011;1604;53.700;10.252;2023-10-19T15:20:51;40.93;;;23.50;;
3185;SDS011;1604;53.700;10.252;2023-10-19T15:23:53;35.77;;;22.77;;
3185;SDS011;1604;53.700;10.252;2023-10-19T15:26:55;49.43;;;26.57;;
3185;SDS011;1604;53.700;10.252;2023-10-19T15:29:57;30.93;;;18.97;;
3185;SDS011;1604;53.700;10.252;2023-10-19T15:32:59;42.40;;;25.80;;
3185;SDS011;1604;53.700;10.252;2023-10-19T15:36:04;37.40;;;24.47;;
3185;SDS011;1604;53.700;10.252;2023-10-19T15:39:06;38.23;;;23.60;;
3185;SDS011;1604;53.700;10.252;2023-10-19T15:42:10;48.50;;;24.80;;
3185;SDS011;1604;53.700;10.252;2023-10-19T15:45:13;43.87;;;25.67;;
3185;SDS011;1604;53.700;10.252;2023-10-19T15:48:18;43.30;;;25.07;;
3185;SDS011;1604;53.700;10.252;2023-10-19T15:51:22;44.37;;;23.93;;
3185;SDS011;1604;53.700;10.252;2023-10-19T15:54:26;44.53;;;26.23;;
3185;SDS011;1604;53.700;10.252;2023-10-19T15:57:28;48.77;;;28.07;;
3185;SDS011;1604;53.700;10.252;2023-10-19T16:00:30;49.80;;;27.00;;
3185;SDS011;1604;53.700;10.252;2023-10-19T16:03:33;84.63;;;31.43;;
3185;SDS011;1604;53.700;10.252;2023-10-19T16:06:36;37.57;;;27.57;;
3185;SDS011;1604;53.700;10.252;2023-10-19T16:09:38;47.47;;;30.90;;
3185;SDS011;1604;53.700;10.252;2023-10-19T16:12:41;42.40;;;26.77;;
3185;SDS011;1604;53.700;10.252;2023-10-19T16:15:43;45.90;;;26.50;;
3185;SDS011;1604;53.700;10.252;2023-10-19T16:18:45;38.60;;;22.70;;
3185;SDS011;1604;53.700;10.252;2023-10-19T16:21:48;50.73;;;27.77;;
3185;SDS011;1604;53.700;10.252;2023-10-19T16:24:51;49.33;;;27.53;;
3185;SDS011;1604;53.700;10.252;2023-10-19T16:27:53;51.90;;;28.47;;
3185;SDS011;1604;53.700;10.252;2023-10-19T16:31:00;42.60;;;28.50;;
3185;SDS011;1604;53.700;10.252;2023-10-19T16:34:03;48.40;;;33.87;;
3185;SDS011;1604;53.700;10.252;2023-10-19T16:37:06;51.37;;;29.67;;
3185;SDS011;1604;53.700;10.252;2023-10-19T16:40:08;51.93;;;30.63;;
3185;SDS011;1604;53.700;10.252;2023-10-19T16:43:14;47.63;;;30.30;;
3185;SDS011;1604;53.700;10.252;2023-10-19T16:46:16;44.47;;;27.00;;
3185;SDS011;1604;53.700;10.252;2023-10-19T16:49:18;45.17;;;28.77;;
3185;SDS011;1604;53.700;10.252;2023-10-19T16:52:21;48.87;;;28.23;;
3185;SDS011;1604;53.700;10.252;2023-10-19T16:55:24;52.17;;;30.20;;
3185;SDS011;1604;53.700;10.252;2023-10-19T16:58:26;52.30;;;27.27;;
3185;SDS011;1604;53.700;10.252;2023-10-19T17:01:29;52.17;;;32.17;;
3185;SDS011;1604;53.700;10.252;2023-10-19T17:04:32;51.20;;;26.77;;
3185;SDS011;1604;53.700;10.252;2023-10-19T17:07:35;53.83;;;29.97;;
3185;SDS011;1604;53.700;10.252;2023-10-19T17:10:37;53.57;;;30.17;;
3185;SDS011;1604;53.700;10.252;2023-10-19T17:13:39;46.73;;;26.73;;
3185;SDS011;1604;53.700;10.252;2023-10-19T17:16:41;49.13;;;28.73;;
3185;SDS011;1604;53.700;10.252;2023-10-19T17:19:44;53.07;;;28.47;;
3185;SDS011;1604;53.700;10.252;2023-10-19T17:22:48;49.97;;;31.97;;
3185;SDS011;1604;53.700;10.252;2023-10-19T17:25:51;52.00;;;32.23;;
3185;SDS011;1604;53.700;10.252;2023-10-19T17:28:53;53.93;;;36.03;;
3185;SDS011;1604;53.700;10.252;2023-10-19T17:31:56;55.80;;;35.63;;
3185;SDS011;1604;53.700;10.252;2023-10-19T17:34:58;55.40;;;29.70;;
3185;SDS011;1604;53.700;10.252;2023-10-19T17:38:01;59.93;;;32.07;;
3185;SDS011;1604;53.700;10.252;2023-10-19T17:41:03;49.73;;;27.00;;
3185;SDS011;1604;53.700;10.252;2023-10-19T17:44:06;49.60;;;32.80;;
3185;SDS011;1604;53.700;10.252;2023-10-19T17:47:08;64.20;;;38.30;;
3185;SDS011;1604;53.700;10.252;2023-10-19T17:50:12;59.23;;;35.93;;
3185;SDS011;1604;53.700;10.252;2023-10-19T17:53:16;53.63;;;31.50;;
3185;SDS011;1604;53.700;10.252;2023-10-19T17:56:18;54.23;;;31.30;;
3185;SDS011;1604;53.700;10.252;2023-10-19T17:59:20;48.03;;;30.30;;
3185;SDS011;1604;53.700;10.252;2023-10-19T18:02:22;50.37;;;27.63;;
3185;SDS011;1604;53.700;10.252;2023-10-19T18:05:25;52.23;;;29.37;;
3185;SDS011;1604;53.700;10.252;2023-10-19T18:08:29;48.00;;;31.00;;
3185;SDS011;1604;53.700;10.252;2023-10-19T18:11:32;46.00;;;28.07;;
3185;SDS011;1604;53.700;10.252;2023-10-19T18:14:34;42.57;;;26.33;;
3185;SDS011;1604;53.700;10.252;2023-10-19T18:17:36;59.80;;;32.90;;
3185;SDS011;1604;53.700;10.252;2023-10-19T18:20:39;54.53;;;32.93;;
3185;SDS011;1604;53.700;10.252;2023-10-19T18:23:43;47.20;;;25.60;;
3185;SDS011;1604;53.700;10.252;2023-10-19T18:26:46;36.90;;;22.23;;
3185;SDS011;1604;53.700;10.252;2023-10-19T18:29:48;43.10;;;29.10;;
3185;SDS011;1604;53.700;10.252;2023-10-19T18:32:50;48.07;;;28.10;;
3185;SDS011;1604;53.700;10.252;2023-10-19T18:35:56;46.47;;;30.17;;
3185;SDS011;1604;53.700;10.252;2023-10-19T18:39:00;42.87;;;30.17;;
3185;SDS011;1604;53.700;10.252;2023-10-19T18:42:03;45.47;;;30.10;;
3185;SDS011;1604;53.700;10.252;2023-10-19T18:45:09;41.50;;;24.57;;
3185;SDS011;1604;53.700;10.252;2023-10-19T18:48:11;39.90;;;28.80;;
3185;SDS011;1604;53.700;10.252;2023-10-19T18:51:13;38.27;;;22.40;;
3185;SDS011;1604;53.700;10.252;2023-10-19T18:54:16;37.30;;;25.90;;
3185;SDS011;1604;53.700;10.252;2023-10-19T18:57:18;35.77;;;25.80;;
3185;SDS011;1604;53.700;10.252;2023-10-19T19:00:20;42.07;;;26.50;;
3185;SDS011;1604;53.700;10.252;2023-10-19T19:03:25;39.33;;;28.40;;
3185;SDS011;1604;53.700;10.252;2023-10-19T19:06:27;39.00;;;22.70;;
3185;SDS011;1604;53.700;10.252;2023-10-19T19:09:31;38.70;;;22.70;;
3185;SDS011;1604;53.700;10.252;2023-10-19T19:12:33;33.70;;;22.00;;